sensor_id;sensor_type;location;lat;lon;timestamp;P1;durP1;ratioP1;P2;durP2;ratioP2
7829;SDS011;3960;51.86894000;5.39848000;2022-10-12T00:01:54;13.47;;;6.97;;
7829;SDS011;3960;51.86894000;5.39848000;2022-10-12T00:04:20;16.42;;;7.55;;
7829;SDS011;3960;51.86894000;5.39848000;2022-10-12T00:06:45;19.30;;;8.33;;
7829;SDS011;3960;51.86894000;5.39848000;2022-10-12T00:09:10;17.43;;;7.60;;
7829;SDS011;3960;51.86894000;5.39848000;2022-10-12T00:11:35;15.13;;;7.53;;
7829;SDS011;3960;51.86894000;5.39848000;2022-10-12T00:14:00;13.93;;;7.60;;
7829;SDS011;3960;51.86894000;5.39848000;2022-10-12T00:16:26;14.37;;;7.23;;
7829;SDS011;3960;51.86894000;5.39848000;2022-10-12T00:18:55;14.18;;;7.40;;
7829;SDS011;3960;51.86894000;5.39848000;2022-10-12T00:21:21;16.27;;;7.10;;
7829;SDS011;3960;51.86894000;5.39848000;2022-10-12T00:23:47;12.98;;;6.45;;
7829;SDS011;3960;51.86894000;5.39848000;2022-10-12T00:26:16;15.05;;;7.65;;
7829;SDS011;3960;51.86894000;5.39848000;2022-10-12T00:28:42;17.13;;;8.07;;
7829;SDS011;3960;51.86894000;5.39848000;2022-10-12T00:31:08;15.70;;;7.22;;
7829;SDS011;3960;51.86894000;5.39848000;2022-10-12T00:33:34;14.18;;;7.28;;
7829;SDS011;3960;51.86894000;5.39848000;2022-10-12T00:36:09;15.40;;;7.63;;
7829;SDS011;3960;51.86894000;5.39848000;2022-10-12T00:38:34;15.55;;;7.40;;
7829;SDS011;3960;51.86894000;5.39848000;2022-10-12T00:40:59;18.40;;;8.10;;
7829;SDS011;3960;51.86894000;5.39848000;2022-10-12T00:45:50;15.23;;;7.70;;
7829;SDS011;3960;51.86894000;5.39848000;2022-10-12T00:48:15;17.13;;;8.48;;
7829;SDS011;3960;51.86894000;5.39848000;2022-10-12T00:50:40;13.48;;;7.75;;
7829;SDS011;3960;51.86894000;5.39848000;2022-10-12T00:53:09;18.43;;;8.40;;
7829;SDS011;3960;51.86894000;5.39848000;2022-10-12T00:55:36;18.52;;;8.65;;
7829;SDS011;3960;51.86894000;5.39848000;2022-10-12T00:58:03;16.23;;;8.40;;
7829;SDS011;3960;51.86894000;5.39848000;2022-10-12T01:00:29;17.20;;;8.27;;
7829;SDS011;3960;51.86894000;5.39848000;2022-10-12T01:02:54;16.17;;;8.45;;
7829;SDS011;3960;51.86894000;5.39848000;2022-10-12T01:05:20;17.60;;;8.38;;
7829;SDS011;3960;51.86894000;5.39848000;2022-10-12T01:07:45;17.40;;;8.30;;
7829;SDS011;3960;51.86894000;5.39848000;2022-10-12T01:10:11;25.93;;;9.53;;
7829;SDS011;3960;51.86894000;5.39848000;2022-10-12T01:12:36;16.95;;;8.80;;
7829;SDS011;3960;51.86894000;5.39848000;2022-10-12T01:15:03;16.42;;;8.70;;
7829;SDS011;3960;51.86894000;5.39848000;2022-10-12T01:20:18;20.50;;;8.80;;
7829;SDS011;3960;51.86894000;5.39848000;2022-10-12T01:28:06;23.13;;;10.18;;
7829;SDS011;3960;51.86894000;5.39848000;2022-10-12T01:30:35;16.83;;;9.23;;
7829;SDS011;3960;51.86894000;5.39848000;2022-10-12T01:33:08;26.67;;;10.50;;
7829;SDS011;3960;51.86894000;5.39848000;2022-10-12T01:35:55;18.05;;;9.48;;
7829;SDS011;3960;51.86894000;5.39848000;2022-10-12T01:41:07;23.10;;;8.73;;
7829;SDS011;3960;51.86894000;5.39848000;2022-10-12T01:43:39;19.92;;;9.50;;
7829;SDS011;3960;51.86894000;5.39848000;2022-10-12T01:48:46;17.05;;;10.07;;
7829;SDS011;3960;51.86894000;5.39848000;2022-10-12T01:51:15;18.88;;;10.02;;
7829;SDS011;3960;51.86894000;5.39848000;2022-10-12T01:53:45;16.60;;;10.32;;
7829;SDS011;3960;51.86894000;5.39848000;2022-10-12T01:56:20;19.25;;;9.35;;
7829;SDS011;3960;51.86894000;5.39848000;2022-10-12T02:03:58;24.85;;;11.07;;
7829;SDS011;3960;51.86894000;5.39848000;2022-10-12T02:06:27;21.75;;;10.60;;
7829;SDS011;3960;51.86894000;5.39848000;2022-10-12T02:08:55;24.00;;;10.88;;
7829;SDS011;3960;51.86894000;5.39848000;2022-10-12T02:11:24;18.67;;;10.15;;
7829;SDS011;3960;51.86894000;5.39848000;2022-10-12T02:13:50;16.70;;;9.48;;
7829;SDS011;3960;51.86894000;5.39848000;2022-10-12T02:16:18;19.00;;;10.65;;
7829;SDS011;3960;51.86894000;5.39848000;2022-10-12T02:18:45;20.35;;;9.55;;
7829;SDS011;3960;51.86894000;5.39848000;2022-10-12T02:21:11;15.63;;;9.05;;
7829;SDS011;3960;51.86894000;5.39848000;2022-10-12T02:23:39;22.45;;;9.95;;
7829;SDS011;3960;51.86894000;5.39848000;2022-10-12T02:26:04;20.17;;;9.45;;
7829;SDS011;3960;51.86894000;5.39848000;2022-10-12T02:28:30;21.88;;;9.98;;
7829;SDS011;3960;51.86894000;5.39848000;2022-10-12T02:31:01;21.48;;;10.45;;
7829;SDS011;3960;51.86894000;5.39848000;2022-10-12T02:33:28;20.92;;;10.15;;
7829;SDS011;3960;51.86894000;5.39848000;2022-10-12T02:36:00;18.90;;;9.52;;
7829;SDS011;3960;51.86894000;5.39848000;2022-10-12T02:38:34;24.02;;;10.57;;
7829;SDS011;3960;51.86894000;5.39848000;2022-10-12T02:41:02;18.35;;;9.65;;
7829;SDS011;3960;51.86894000;5.39848000;2022-10-12T02:43:32;21.15;;;10.93;;
7829;SDS011;3960;51.86894000;5.39848000;2022-10-12T02:45:58;14.77;;;9.65;;
7829;SDS011;3960;51.86894000;5.39848000;2022-10-12T02:48:25;20.83;;;10.30;;
7829;SDS011;3960;51.86894000;5.39848000;2022-10-12T02:50:51;20.65;;;10.75;;
7829;SDS011;3960;51.86894000;5.39848000;2022-10-12T02:53:18;25.17;;;11.30;;
7829;SDS011;3960;51.86894000;5.39848000;2022-10-12T02:55:48;16.15;;;9.80;;
7829;SDS011;3960;51.86894000;5.39848000;2022-10-12T02:58:14;23.08;;;10.45;;
7829;SDS011;3960;51.86894000;5.39848000;2022-10-12T03:00:39;25.17;;;10.80;;
7829;SDS011;3960;51.86894000;5.39848000;2022-10-12T03:03:04;20.25;;;10.27;;
7829;SDS011;3960;51.86894000;5.39848000;2022-10-12T03:05:29;19.03;;;9.63;;
7829;SDS011;3960;51.86894000;5.39848000;2022-10-12T03:07:55;20.80;;;10.07;;
7829;SDS011;3960;51.86894000;5.39848000;2022-10-12T03:10:20;23.53;;;9.87;;
7829;SDS011;3960;51.86894000;5.39848000;2022-10-12T03:12:45;19.70;;;9.67;;
7829;SDS011;3960;51.86894000;5.39848000;2022-10-12T03:15:10;22.40;;;9.07;;
7829;SDS011;3960;51.86894000;5.39848000;2022-10-12T03:17:35;17.70;;;8.70;;
7829;SDS011;3960;51.86894000;5.39848000;2022-10-12T03:20:00;19.88;;;9.13;;
7829;SDS011;3960;51.86894000;5.39848000;2022-10-12T03:22:26;19.10;;;9.23;;
7829;SDS011;3960;51.86894000;5.39848000;2022-10-12T03:24:51;18.85;;;9.30;;
7829;SDS011;3960;51.86894000;5.39848000;2022-10-12T03:27:16;15.23;;;8.13;;
7829;SDS011;3960;51.86894000;5.39848000;2022-10-12T03:29:41;16.10;;;8.25;;
7829;SDS011;3960;51.86894000;5.39848000;2022-10-12T03:32:06;14.68;;;8.38;;
7829;SDS011;3960;51.86894000;5.39848000;2022-10-12T03:34:32;12.25;;;8.13;;
7829;SDS011;3960;51.86894000;5.39848000;2022-10-12T03:36:57;17.53;;;8.03;;
7829;SDS011;3960;51.86894000;5.39848000;2022-10-12T03:39:23;18.52;;;8.13;;
7829;SDS011;3960;51.86894000;5.39848000;2022-10-12T03:41:48;14.63;;;7.65;;
7829;SDS011;3960;51.86894000;5.39848000;2022-10-12T03:44:13;18.33;;;8.23;;
7829;SDS011;3960;51.86894000;5.39848000;2022-10-12T03:46:38;14.32;;;6.90;;
7829;SDS011;3960;51.86894000;5.39848000;2022-10-12T03:49:03;12.20;;;7.20;;
7829;SDS011;3960;51.86894000;5.39848000;2022-10-12T03:51:29;15.43;;;6.70;;
7829;SDS011;3960;51.86894000;5.39848000;2022-10-12T03:53:54;17.23;;;7.35;;
7829;SDS011;3960;51.86894000;5.39848000;2022-10-12T03:56:19;16.07;;;7.93;;
7829;SDS011;3960;51.86894000;5.39848000;2022-10-12T03:58:44;15.00;;;7.20;;
7829;SDS011;3960;51.86894000;5.39848000;2022-10-12T04:01:09;13.98;;;7.18;;
7829;SDS011;3960;51.86894000;5.39848000;2022-10-12T04:03:34;12.23;;;7.40;;
7829;SDS011;3960;51.86894000;5.39848000;2022-10-12T04:06:00;16.77;;;7.72;;
7829;SDS011;3960;51.86894000;5.39848000;2022-10-12T04:08:25;15.18;;;7.55;;
7829;SDS011;3960;51.86894000;5.39848000;2022-10-12T04:10:51;19.05;;;7.68;;
7829;SDS011;3960;51.86894000;5.39848000;2022-10-12T04:13:17;19.33;;;8.05;;
7829;SDS011;3960;51.86894000;5.39848000;2022-10-12T04:15:42;14.07;;;7.47;;
7829;SDS011;3960;51.86894000;5.39848000;2022-10-12T04:18:07;15.13;;;7.23;;
7829;SDS011;3960;51.86894000;5.39848000;2022-10-12T04:20:32;14.73;;;7.53;;
7829;SDS011;3960;51.86894000;5.39848000;2022-10-12T04:22:57;19.13;;;8.45;;
7829;SDS011;3960;51.86894000;5.39848000;2022-10-12T04:25:23;24.03;;;8.40;;
7829;SDS011;3960;51.86894000;5.39848000;2022-10-12T04:27:48;11.95;;;7.40;;
7829;SDS011;3960;51.86894000;5.39848000;2022-10-12T04:30:13;13.13;;;6.97;;
7829;SDS011;3960;51.86894000;5.39848000;2022-10-12T04:32:38;16.65;;;7.20;;
7829;SDS011;3960;51.86894000;5.39848000;2022-10-12T04:35:03;16.30;;;7.40;;
7829;SDS011;3960;51.86894000;5.39848000;2022-10-12T04:37:29;13.57;;;6.72;;
7829;SDS011;3960;51.86894000;5.39848000;2022-10-12T04:39:54;14.60;;;6.27;;
7829;SDS011;3960;51.86894000;5.39848000;2022-10-12T04:42:19;13.43;;;6.68;;
7829;SDS011;3960;51.86894000;5.39848000;2022-10-12T04:44:44;11.30;;;6.30;;
7829;SDS011;3960;51.86894000;5.39848000;2022-10-12T04:47:10;15.93;;;6.70;;
7829;SDS011;3960;51.86894000;5.39848000;2022-10-12T04:49:35;15.73;;;7.03;;
7829;SDS011;3960;51.86894000;5.39848000;2022-10-12T04:52:00;17.13;;;7.53;;
7829;SDS011;3960;51.86894000;5.39848000;2022-10-12T04:54:25;17.15;;;6.65;;
7829;SDS011;3960;51.86894000;5.39848000;2022-10-12T04:56:50;13.30;;;7.13;;
7829;SDS011;3960;51.86894000;5.39848000;2022-10-12T04:59:16;22.60;;;7.57;;
7829;SDS011;3960;51.86894000;5.39848000;2022-10-12T05:01:41;17.23;;;6.55;;
7829;SDS011;3960;51.86894000;5.39848000;2022-10-12T05:04:06;14.00;;;6.65;;
7829;SDS011;3960;51.86894000;5.39848000;2022-10-12T05:06:32;13.10;;;6.20;;
7829;SDS011;3960;51.86894000;5.39848000;2022-10-12T05:08:57;11.13;;;7.10;;
7829;SDS011;3960;51.86894000;5.39848000;2022-10-12T05:11:22;14.80;;;6.80;;
7829;SDS011;3960;51.86894000;5.39848000;2022-10-12T05:13:47;11.30;;;6.15;;
7829;SDS011;3960;51.86894000;5.39848000;2022-10-12T05:16:12;10.15;;;6.22;;
7829;SDS011;3960;51.86894000;5.39848000;2022-10-12T05:18:38;10.05;;;6.30;;
7829;SDS011;3960;51.86894000;5.39848000;2022-10-12T05:21:03;11.97;;;7.30;;
7829;SDS011;3960;51.86894000;5.39848000;2022-10-12T05:23:28;13.88;;;6.78;;
7829;SDS011;3960;51.86894000;5.39848000;2022-10-12T05:25:56;11.97;;;6.63;;
7829;SDS011;3960;51.86894000;5.39848000;2022-10-12T05:28:21;12.75;;;6.43;;
7829;SDS011;3960;51.86894000;5.39848000;2022-10-12T05:30:50;13.10;;;6.65;;
7829;SDS011;3960;51.86894000;5.39848000;2022-10-12T05:33:16;12.85;;;6.88;;
7829;SDS011;3960;51.86894000;5.39848000;2022-10-12T05:35:41;9.98;;;6.05;;
7829;SDS011;3960;51.86894000;5.39848000;2022-10-12T05:38:06;10.80;;;6.20;;
7829;SDS011;3960;51.86894000;5.39848000;2022-10-12T05:40:32;13.80;;;6.63;;
7829;SDS011;3960;51.86894000;5.39848000;2022-10-12T05:42:57;15.70;;;6.30;;
7829;SDS011;3960;51.86894000;5.39848000;2022-10-12T05:45:22;14.67;;;6.33;;
7829;SDS011;3960;51.86894000;5.39848000;2022-10-12T05:47:47;12.50;;;6.72;;
7829;SDS011;3960;51.86894000;5.39848000;2022-10-12T05:50:12;13.43;;;5.87;;
7829;SDS011;3960;51.86894000;5.39848000;2022-10-12T05:52:38;12.60;;;6.00;;
7829;SDS011;3960;51.86894000;5.39848000;2022-10-12T05:55:03;10.57;;;6.07;;
7829;SDS011;3960;51.86894000;5.39848000;2022-10-12T05:57:28;9.38;;;5.78;;
7829;SDS011;3960;51.86894000;5.39848000;2022-10-12T05:59:53;13.77;;;6.60;;
7829;SDS011;3960;51.86894000;5.39848000;2022-10-12T06:02:18;10.97;;;6.37;;
7829;SDS011;3960;51.86894000;5.39848000;2022-10-12T06:04:44;15.18;;;6.30;;
7829;SDS011;3960;51.86894000;5.39848000;2022-10-12T06:07:09;12.90;;;5.97;;
7829;SDS011;3960;51.86894000;5.39848000;2022-10-12T06:09:34;12.75;;;6.30;;
7829;SDS011;3960;51.86894000;5.39848000;2022-10-12T06:12:02;17.40;;;6.72;;
7829;SDS011;3960;51.86894000;5.39848000;2022-10-12T06:14:27;12.52;;;7.00;;
7829;SDS011;3960;51.86894000;5.39848000;2022-10-12T06:16:53;17.10;;;8.03;;
7829;SDS011;3960;51.86894000;5.39848000;2022-10-12T06:19:18;23.45;;;11.10;;
7829;SDS011;3960;51.86894000;5.39848000;2022-10-12T06:21:43;22.10;;;9.73;;
7829;SDS011;3960;51.86894000;5.39848000;2022-10-12T06:24:08;24.00;;;11.27;;
7829;SDS011;3960;51.86894000;5.39848000;2022-10-12T06:26:34;26.40;;;12.10;;
7829;SDS011;3960;51.86894000;5.39848000;2022-10-12T06:28:59;21.13;;;11.43;;
7829;SDS011;3960;51.86894000;5.39848000;2022-10-12T06:31:24;24.63;;;12.55;;
7829;SDS011;3960;51.86894000;5.39848000;2022-10-12T06:33:50;25.88;;;13.30;;
7829;SDS011;3960;51.86894000;5.39848000;2022-10-12T06:36:16;31.15;;;14.93;;
7829;SDS011;3960;51.86894000;5.39848000;2022-10-12T06:38:41;30.50;;;13.47;;
7829;SDS011;3960;51.86894000;5.39848000;2022-10-12T06:41:06;26.48;;;11.93;;
7829;SDS011;3960;51.86894000;5.39848000;2022-10-12T06:43:31;26.67;;;10.97;;
7829;SDS011;3960;51.86894000;5.39848000;2022-10-12T06:45:59;20.73;;;8.20;;
7829;SDS011;3960;51.86894000;5.39848000;2022-10-12T06:48:25;17.38;;;7.93;;
7829;SDS011;3960;51.86894000;5.39848000;2022-10-12T06:50:50;24.47;;;9.10;;
7829;SDS011;3960;51.86894000;5.39848000;2022-10-12T06:53:16;21.43;;;8.13;;
7829;SDS011;3960;51.86894000;5.39848000;2022-10-12T06:55:41;16.85;;;8.07;;
7829;SDS011;3960;51.86894000;5.39848000;2022-10-12T06:58:06;18.80;;;7.75;;
7829;SDS011;3960;51.86894000;5.39848000;2022-10-12T07:00:31;18.45;;;7.60;;
7829;SDS011;3960;51.86894000;5.39848000;2022-10-12T07:02:56;17.50;;;7.67;;
7829;SDS011;3960;51.86894000;5.39848000;2022-10-12T07:05:22;19.90;;;8.18;;
7829;SDS011;3960;51.86894000;5.39848000;2022-10-12T07:07:47;16.15;;;7.00;;
7829;SDS011;3960;51.86894000;5.39848000;2022-10-12T07:10:13;20.85;;;7.43;;
7829;SDS011;3960;51.86894000;5.39848000;2022-10-12T07:12:38;17.67;;;6.77;;
7829;SDS011;3960;51.86894000;5.39848000;2022-10-12T07:15:04;17.93;;;7.23;;
7829;SDS011;3960;51.86894000;5.39848000;2022-10-12T07:17:30;17.20;;;6.90;;
7829;SDS011;3960;51.86894000;5.39848000;2022-10-12T07:19:55;21.35;;;8.25;;
7829;SDS011;3960;51.86894000;5.39848000;2022-10-12T07:22:20;16.75;;;7.47;;
7829;SDS011;3960;51.86894000;5.39848000;2022-10-12T07:24:45;19.60;;;8.03;;
7829;SDS011;3960;51.86894000;5.39848000;2022-10-12T07:27:11;16.37;;;8.23;;
7829;SDS011;3960;51.86894000;5.39848000;2022-10-12T07:29:36;23.92;;;8.57;;
7829;SDS011;3960;51.86894000;5.39848000;2022-10-12T07:32:01;18.52;;;7.25;;
7829;SDS011;3960;51.86894000;5.39848000;2022-10-12T07:34:27;17.38;;;7.65;;
7829;SDS011;3960;51.86894000;5.39848000;2022-10-12T07:36:53;15.38;;;8.30;;
7829;SDS011;3960;51.86894000;5.39848000;2022-10-12T07:39:18;20.88;;;7.72;;
7829;SDS011;3960;51.86894000;5.39848000;2022-10-12T07:41:44;15.75;;;7.57;;
7829;SDS011;3960;51.86894000;5.39848000;2022-10-12T07:44:09;13.07;;;7.13;;
7829;SDS011;3960;51.86894000;5.39848000;2022-10-12T07:46:34;20.35;;;7.97;;
7829;SDS011;3960;51.86894000;5.39848000;2022-10-12T07:48:59;14.00;;;7.23;;
7829;SDS011;3960;51.86894000;5.39848000;2022-10-12T07:51:25;14.57;;;7.00;;
7829;SDS011;3960;51.86894000;5.39848000;2022-10-12T07:53:50;18.03;;;7.03;;
7829;SDS011;3960;51.86894000;5.39848000;2022-10-12T07:56:15;15.60;;;6.32;;
7829;SDS011;3960;51.86894000;5.39848000;2022-10-12T07:58:41;20.90;;;8.18;;
7829;SDS011;3960;51.86894000;5.39848000;2022-10-12T08:01:07;11.68;;;6.80;;
7829;SDS011;3960;51.86894000;5.39848000;2022-10-12T08:03:33;10.00;;;6.65;;
7829;SDS011;3960;51.86894000;5.39848000;2022-10-12T08:05:58;13.40;;;7.03;;
7829;SDS011;3960;51.86894000;5.39848000;2022-10-12T08:08:23;20.85;;;7.53;;
7829;SDS011;3960;51.86894000;5.39848000;2022-10-12T08:10:48;19.40;;;7.63;;
7829;SDS011;3960;51.86894000;5.39848000;2022-10-12T08:13:13;14.07;;;7.07;;
7829;SDS011;3960;51.86894000;5.39848000;2022-10-12T08:15:38;18.23;;;7.03;;
7829;SDS011;3960;51.86894000;5.39848000;2022-10-12T08:18:04;22.00;;;7.90;;
7829;SDS011;3960;51.86894000;5.39848000;2022-10-12T08:20:29;15.63;;;7.10;;
7829;SDS011;3960;51.86894000;5.39848000;2022-10-12T08:22:54;15.93;;;7.40;;
7829;SDS011;3960;51.86894000;5.39848000;2022-10-12T08:25:19;14.33;;;7.27;;
7829;SDS011;3960;51.86894000;5.39848000;2022-10-12T08:27:44;12.43;;;7.05;;
7829;SDS011;3960;51.86894000;5.39848000;2022-10-12T08:30:10;16.40;;;7.47;;
7829;SDS011;3960;51.86894000;5.39848000;2022-10-12T08:32:35;12.57;;;7.03;;
7829;SDS011;3960;51.86894000;5.39848000;2022-10-12T08:35:00;14.05;;;7.20;;
7829;SDS011;3960;51.86894000;5.39848000;2022-10-12T08:37:26;16.00;;;6.53;;
7829;SDS011;3960;51.86894000;5.39848000;2022-10-12T08:39:52;18.48;;;6.88;;
7829;SDS011;3960;51.86894000;5.39848000;2022-10-12T08:47:40;19.05;;;6.78;;
7829;SDS011;3960;51.86894000;5.39848000;2022-10-12T08:50:02;14.05;;;6.68;;
7829;SDS011;3960;51.86894000;5.39848000;2022-10-12T08:52:40;23.40;;;7.85;;
7829;SDS011;3960;51.86894000;5.39848000;2022-10-12T08:55:24;17.52;;;7.22;;
7829;SDS011;3960;51.86894000;5.39848000;2022-10-12T08:57:52;16.05;;;8.10;;
7829;SDS011;3960;51.86894000;5.39848000;2022-10-12T09:00:17;16.70;;;7.80;;
7829;SDS011;3960;51.86894000;5.39848000;2022-10-12T09:05:16;16.17;;;7.35;;
7829;SDS011;3960;51.86894000;5.39848000;2022-10-12T09:08:06;14.43;;;7.78;;
7829;SDS011;3960;51.86894000;5.39848000;2022-10-12T09:10:45;12.75;;;7.10;;
7829;SDS011;3960;51.86894000;5.39848000;2022-10-12T09:15:48;25.88;;;13.18;;
7829;SDS011;3960;51.86894000;5.39848000;2022-10-12T09:18:15;28.95;;;10.88;;
7829;SDS011;3960;51.86894000;5.39848000;2022-10-12T09:20:51;17.42;;;7.70;;
7829;SDS011;3960;51.86894000;5.39848000;2022-10-12T09:23:29;16.73;;;7.60;;
7829;SDS011;3960;51.86894000;5.39848000;2022-10-12T09:25:57;22.42;;;7.70;;
7829;SDS011;3960;51.86894000;5.39848000;2022-10-12T09:28:26;16.08;;;7.88;;
7829;SDS011;3960;51.86894000;5.39848000;2022-10-12T09:31:10;14.38;;;7.22;;
7829;SDS011;3960;51.86894000;5.39848000;2022-10-12T09:36:09;14.18;;;7.05;;
7829;SDS011;3960;51.86894000;5.39848000;2022-10-12T09:38:36;14.55;;;6.90;;
7829;SDS011;3960;51.86894000;5.39848000;2022-10-12T09:41:02;12.93;;;6.70;;
7829;SDS011;3960;51.86894000;5.39848000;2022-10-12T09:43:27;18.15;;;7.53;;
7829;SDS011;3960;51.86894000;5.39848000;2022-10-12T09:45:52;15.63;;;7.73;;
7829;SDS011;3960;51.86894000;5.39848000;2022-10-12T09:48:19;13.13;;;7.55;;
7829;SDS011;3960;51.86894000;5.39848000;2022-10-12T09:50:55;13.05;;;6.93;;
7829;SDS011;3960;51.86894000;5.39848000;2022-10-12T09:53:23;11.90;;;7.18;;
7829;SDS011;3960;51.86894000;5.39848000;2022-10-12T09:55:52;15.60;;;7.68;;
7829;SDS011;3960;51.86894000;5.39848000;2022-10-12T09:58:18;18.30;;;8.25;;
7829;SDS011;3960;51.86894000;5.39848000;2022-10-12T10:00:44;13.50;;;7.65;;
7829;SDS011;3960;51.86894000;5.39848000;2022-10-12T10:03:13;13.77;;;7.70;;
7829;SDS011;3960;51.86894000;5.39848000;2022-10-12T10:05:46;12.48;;;7.35;;
7829;SDS011;3960;51.86894000;5.39848000;2022-10-12T10:08:25;15.60;;;7.53;;
7829;SDS011;3960;51.86894000;5.39848000;2022-10-12T10:10:51;18.58;;;7.72;;
7829;SDS011;3960;51.86894000;5.39848000;2022-10-12T10:13:17;15.10;;;7.68;;
7829;SDS011;3960;51.86894000;5.39848000;2022-10-12T10:15:45;15.82;;;7.82;;
7829;SDS011;3960;51.86894000;5.39848000;2022-10-12T10:21:11;13.65;;;7.43;;
7829;SDS011;3960;51.86894000;5.39848000;2022-10-12T10:23:41;17.33;;;7.30;;
7829;SDS011;3960;51.86894000;5.39848000;2022-10-12T10:26:08;18.40;;;7.45;;
7829;SDS011;3960;51.86894000;5.39848000;2022-10-12T10:28:38;12.52;;;7.03;;
7829;SDS011;3960;51.86894000;5.39848000;2022-10-12T10:31:15;17.45;;;7.60;;
7829;SDS011;3960;51.86894000;5.39848000;2022-10-12T10:33:41;12.77;;;7.22;;
7829;SDS011;3960;51.86894000;5.39848000;2022-10-12T10:36:20;12.48;;;7.65;;
7829;SDS011;3960;51.86894000;5.39848000;2022-10-12T10:41:14;16.45;;;7.55;;
7829;SDS011;3960;51.86894000;5.39848000;2022-10-12T10:43:41;14.93;;;7.18;;
7829;SDS011;3960;51.86894000;5.39848000;2022-10-12T10:46:09;17.50;;;7.60;;
7829;SDS011;3960;51.86894000;5.39848000;2022-10-12T10:48:47;14.20;;;7.35;;
7829;SDS011;3960;51.86894000;5.39848000;2022-10-12T10:51:15;14.70;;;8.07;;
7829;SDS011;3960;51.86894000;5.39848000;2022-10-12T10:53:45;16.60;;;8.48;;
7829;SDS011;3960;51.86894000;5.39848000;2022-10-12T10:56:11;15.98;;;8.30;;
7829;SDS011;3960;51.86894000;5.39848000;2022-10-12T11:01:18;17.52;;;7.80;;
7829;SDS011;3960;51.86894000;5.39848000;2022-10-12T11:03:48;19.08;;;9.27;;
7829;SDS011;3960;51.86894000;5.39848000;2022-10-12T11:06:18;21.83;;;9.63;;
7829;SDS011;3960;51.86894000;5.39848000;2022-10-12T11:08:45;23.98;;;9.60;;
7829;SDS011;3960;51.86894000;5.39848000;2022-10-12T11:11:11;19.60;;;9.95;;
7829;SDS011;3960;51.86894000;5.39848000;2022-10-12T11:13:42;22.02;;;10.48;;
7829;SDS011;3960;51.86894000;5.39848000;2022-10-12T11:16:15;20.80;;;9.90;;
7829;SDS011;3960;51.86894000;5.39848000;2022-10-12T11:18:49;19.75;;;10.38;;
7829;SDS011;3960;51.86894000;5.39848000;2022-10-12T11:21:17;18.38;;;9.98;;
7829;SDS011;3960;51.86894000;5.39848000;2022-10-12T11:28:37;21.73;;;9.65;;
7829;SDS011;3960;51.86894000;5.39848000;2022-10-12T11:31:03;14.70;;;9.65;;
7829;SDS011;3960;51.86894000;5.39848000;2022-10-12T11:33:29;22.95;;;10.57;;
7829;SDS011;3960;51.86894000;5.39848000;2022-10-12T11:36:01;18.42;;;10.02;;
7829;SDS011;3960;51.86894000;5.39848000;2022-10-12T11:38:32;17.42;;;9.98;;
7829;SDS011;3960;51.86894000;5.39848000;2022-10-12T11:43:27;19.00;;;9.32;;
7829;SDS011;3960;51.86894000;5.39848000;2022-10-12T11:45:54;12.63;;;9.38;;
7829;SDS011;3960;51.86894000;5.39848000;2022-10-12T11:48:25;16.80;;;9.25;;
7829;SDS011;3960;51.86894000;5.39848000;2022-10-12T11:50:51;22.77;;;9.88;;
7829;SDS011;3960;51.86894000;5.39848000;2022-10-12T11:53:26;20.53;;;10.00;;
7829;SDS011;3960;51.86894000;5.39848000;2022-10-12T11:58:40;15.50;;;10.10;;
7829;SDS011;3960;51.86894000;5.39848000;2022-10-12T12:11:22;23.48;;;10.80;;
7829;SDS011;3960;51.86894000;5.39848000;2022-10-12T12:13:48;21.23;;;11.25;;
7829;SDS011;3960;51.86894000;5.39848000;2022-10-12T12:21:22;21.77;;;10.73;;
7829;SDS011;3960;51.86894000;5.39848000;2022-10-12T12:23:52;20.20;;;10.57;;
7829;SDS011;3960;51.86894000;5.39848000;2022-10-12T12:26:18;20.15;;;10.68;;
7829;SDS011;3960;51.86894000;5.39848000;2022-10-12T12:28:47;22.45;;;11.65;;
7829;SDS011;3960;51.86894000;5.39848000;2022-10-12T12:31:14;19.25;;;10.48;;
7829;SDS011;3960;51.86894000;5.39848000;2022-10-12T12:33:40;20.08;;;10.93;;
7829;SDS011;3960;51.86894000;5.39848000;2022-10-12T12:36:07;23.20;;;10.80;;
7829;SDS011;3960;51.86894000;5.39848000;2022-10-12T12:38:34;15.90;;;10.23;;
7829;SDS011;3960;51.86894000;5.39848000;2022-10-12T12:41:14;25.63;;;12.23;;
7829;SDS011;3960;51.86894000;5.39848000;2022-10-12T12:46:09;21.80;;;10.50;;
7829;SDS011;3960;51.86894000;5.39848000;2022-10-12T12:51:04;18.67;;;9.63;;
7829;SDS011;3960;51.86894000;5.39848000;2022-10-12T12:53:30;21.13;;;10.30;;
7829;SDS011;3960;51.86894000;5.39848000;2022-10-12T13:04:06;18.83;;;9.85;;
7829;SDS011;3960;51.86894000;5.39848000;2022-10-12T13:19:35;17.10;;;7.35;;
7829;SDS011;3960;51.86894000;5.39848000;2022-10-12T13:22:02;14.73;;;7.47;;
7829;SDS011;3960;51.86894000;5.39848000;2022-10-12T13:24:33;16.15;;;7.68;;
7829;SDS011;3960;51.86894000;5.39848000;2022-10-12T13:27:11;21.45;;;8.30;;
7829;SDS011;3960;51.86894000;5.39848000;2022-10-12T13:29:53;20.00;;;8.10;;
7829;SDS011;3960;51.86894000;5.39848000;2022-10-12T13:32:30;18.73;;;8.63;;
7829;SDS011;3960;51.86894000;5.39848000;2022-10-12T13:34:56;16.48;;;7.75;;
7829;SDS011;3960;51.86894000;5.39848000;2022-10-12T13:37:28;20.67;;;8.00;;
7829;SDS011;3960;51.86894000;5.39848000;2022-10-12T13:39:53;26.73;;;8.60;;
7829;SDS011;3960;51.86894000;5.39848000;2022-10-12T13:42:22;16.48;;;7.82;;
7829;SDS011;3960;51.86894000;5.39848000;2022-10-12T13:44:49;15.02;;;6.93;;
7829;SDS011;3960;51.86894000;5.39848000;2022-10-12T13:49:46;18.17;;;6.53;;
7829;SDS011;3960;51.86894000;5.39848000;2022-10-12T13:54:38;14.60;;;5.20;;
7829;SDS011;3960;51.86894000;5.39848000;2022-10-12T13:57:12;14.52;;;4.88;;
7829;SDS011;3960;51.86894000;5.39848000;2022-10-12T13:59:40;12.75;;;4.90;;
7829;SDS011;3960;51.86894000;5.39848000;2022-10-12T14:02:15;13.65;;;4.38;;
7829;SDS011;3960;51.86894000;5.39848000;2022-10-12T14:04:41;10.00;;;4.80;;
7829;SDS011;3960;51.86894000;5.39848000;2022-10-12T14:07:10;15.50;;;5.10;;
7829;SDS011;3960;51.86894000;5.39848000;2022-10-12T14:09:40;14.05;;;4.97;;
7829;SDS011;3960;51.86894000;5.39848000;2022-10-12T14:12:07;11.88;;;4.18;;
7829;SDS011;3960;51.86894000;5.39848000;2022-10-12T14:14:34;12.60;;;4.50;;
7829;SDS011;3960;51.86894000;5.39848000;2022-10-12T14:17:00;13.82;;;4.75;;
7829;SDS011;3960;51.86894000;5.39848000;2022-10-12T14:22:00;13.95;;;4.40;;
7829;SDS011;3960;51.86894000;5.39848000;2022-10-12T14:24:26;13.15;;;4.20;;
7829;SDS011;3960;51.86894000;5.39848000;2022-10-12T14:26:55;12.48;;;3.83;;
7829;SDS011;3960;51.86894000;5.39848000;2022-10-12T14:31:50;10.20;;;3.80;;
7829;SDS011;3960;51.86894000;5.39848000;2022-10-12T14:34:26;10.35;;;3.50;;
7829;SDS011;3960;51.86894000;5.39848000;2022-10-12T14:37:03;13.68;;;3.97;;
7829;SDS011;3960;51.86894000;5.39848000;2022-10-12T14:39:29;16.30;;;3.85;;
7829;SDS011;3960;51.86894000;5.39848000;2022-10-12T14:41:54;8.82;;;3.78;;
7829;SDS011;3960;51.86894000;5.39848000;2022-10-12T14:44:20;8.75;;;3.80;;